createdAt,value
2018-10-18T00:01:34.797Z,8.00
2018-10-18T00:04:02.360Z,8.00
2018-10-18T00:06:30.055Z,7.90
2018-10-18T00:08:57.630Z,8.00
2018-10-18T00:11:25.179Z,8.00
2018-10-18T00:13:52.840Z,8.00
2018-10-18T00:16:20.425Z,8.00
2018-10-18T00:18:48.138Z,8.00
2018-10-18T00:21:15.683Z,8.00
2018-10-18T00:23:43.223Z,7.90
2018-10-18T00:26:10.857Z,7.90
2018-10-18T00:28:38.377Z,7.80
2018-10-18T00:31:05.969Z,7.80
2018-10-18T00:33:33.492Z,7.80
2018-10-18T00:36:01.162Z,7.70
2018-10-18T00:38:28.669Z,7.70
2018-10-18T00:40:56.232Z,7.70
2018-10-18T00:43:23.739Z,7.70
2018-10-18T00:45:51.312Z,7.70
2018-10-18T00:48:18.875Z,7.70
2018-10-18T00:50:46.414Z,7.70
2018-10-18T00:53:13.947Z,7.70
2018-10-18T00:55:41.456Z,7.70
2018-10-18T00:58:09.000Z,7.70
2018-10-18T01:00:36.546Z,7.70
2018-10-18T01:03:04.308Z,7.70
2018-10-18T01:05:31.866Z,7.60
2018-10-18T01:07:59.410Z,7.60
2018-10-18T01:10:26.980Z,7.50
2018-10-18T01:12:54.525Z,7.50
2018-10-18T01:15:22.077Z,7.50
2018-10-18T01:17:49.618Z,7.50
2018-10-18T01:20:17.265Z,7.50
2018-10-18T01:22:44.740Z,7.50
2018-10-18T01:25:12.316Z,7.50
2018-10-18T01:27:39.858Z,7.50
2018-10-18T01:30:07.551Z,7.50
2018-10-18T01:32:35.405Z,7.50
2018-10-18T01:35:03.082Z,7.50
2018-10-18T01:37:30.625Z,7.50
2018-10-18T01:39:58.170Z,7.50
2018-10-18T01:42:25.756Z,7.50
2018-10-18T01:44:53.285Z,7.50
2018-10-18T01:47:20.801Z,7.40
2018-10-18T01:49:48.386Z,7.40
2018-10-18T01:52:15.922Z,7.30
2018-10-18T01:54:43.542Z,7.30
2018-10-18T01:57:11.081Z,7.30
2018-10-18T01:59:38.655Z,7.30
2018-10-18T02:02:06.386Z,7.30
2018-10-18T02:04:33.829Z,7.40
2018-10-18T02:07:01.419Z,7.40
2018-10-18T02:09:28.931Z,7.40
2018-10-18T02:11:56.520Z,7.40
2018-10-18T02:14:24.029Z,7.40
2018-10-18T02:16:51.583Z,7.40
2018-10-18T02:19:19.190Z,7.40
2018-10-18T02:21:46.769Z,7.40
2018-10-18T02:24:14.373Z,7.40
2018-10-18T02:26:41.877Z,7.40
2018-10-18T02:29:09.427Z,7.40
2018-10-18T02:31:36.955Z,7.50
2018-10-18T02:34:04.533Z,7.50
2018-10-18T02:36:32.047Z,7.50
2018-10-18T02:38:59.621Z,7.40
2018-10-18T02:41:27.207Z,7.40
2018-10-18T02:43:54.737Z,7.40
2018-10-18T02:46:22.277Z,7.30
2018-10-18T02:48:49.821Z,7.40
2018-10-18T02:51:17.407Z,7.30
2018-10-18T02:53:44.928Z,7.40
2018-10-18T02:56:12.504Z,7.30
2018-10-18T02:58:40.071Z,7.40
2018-10-18T03:01:07.595Z,7.40
2018-10-18T03:03:35.127Z,7.40
2018-10-18T03:06:02.758Z,7.40
2018-10-18T03:08:30.248Z,7.40
2018-10-18T03:10:57.793Z,7.40
2018-10-18T03:13:25.330Z,7.40
2018-10-18T03:15:52.896Z,7.40
2018-10-18T03:18:20.455Z,7.40
2018-10-18T03:20:47.969Z,7.40
2018-10-18T03:23:16.033Z,7.40
2018-10-18T03:25:43.579Z,7.30
2018-10-18T03:28:11.129Z,7.30
2018-10-18T03:30:38.685Z,7.20
2018-10-18T03:33:06.237Z,7.20
2018-10-18T03:35:33.829Z,7.20
2018-10-18T03:38:01.356Z,7.20
2018-10-18T03:40:28.925Z,7.20
2018-10-18T03:42:56.432Z,7.30
2018-10-18T03:45:24.065Z,7.30
2018-10-18T03:47:51.688Z,7.30
2018-10-18T03:50:19.230Z,7.20
2018-10-18T03:52:46.809Z,7.30
2018-10-18T03:55:14.330Z,7.20
2018-10-18T03:57:41.929Z,7.20
2018-10-18T04:00:09.579Z,7.20
2018-10-18T04:02:37.454Z,7.20
2018-10-18T04:05:05.698Z,7.20
2018-10-18T04:07:33.326Z,7.20
2018-10-18T04:10:00.906Z,7.20
2018-10-18T04:12:28.479Z,7.20
2018-10-18T04:14:56.070Z,7.20
2018-10-18T04:17:23.864Z,7.20
2018-10-18T04:19:51.432Z,7.20
2018-10-18T04:22:19.024Z,7.20
2018-10-18T04:24:46.654Z,7.60
2018-10-18T04:27:14.214Z,8.20
2018-10-18T04:29:41.772Z,8.70
2018-10-18T04:32:09.341Z,9.00
2018-10-18T04:34:36.890Z,9.20
2018-10-18T04:37:04.518Z,9.40
2018-10-18T04:39:32.084Z,9.60
2018-10-18T04:41:59.695Z,9.70
2018-10-18T04:44:27.263Z,9.70
2018-10-18T04:46:54.823Z,9.70
2018-10-18T04:49:22.384Z,9.60
2018-10-18T04:51:49.939Z,9.60
2018-10-18T04:54:17.524Z,9.70
2018-10-18T04:56:45.111Z,9.70
2018-10-18T04:59:12.689Z,9.80
2018-10-18T05:01:40.240Z,10.00
2018-10-18T05:04:07.829Z,10.40
2018-10-18T05:06:35.363Z,10.90
2018-10-18T05:09:03.837Z,11.20
2018-10-18T05:11:31.469Z,11.40
2018-10-18T05:13:58.995Z,11.60
2018-10-18T05:16:26.562Z,11.50
2018-10-18T05:18:54.145Z,11.20
2018-10-18T05:21:21.688Z,10.90
2018-10-18T05:23:49.230Z,10.60
2018-10-18T05:26:16.792Z,10.30
2018-10-18T05:28:44.325Z,10.00
2018-10-18T05:31:11.937Z,9.90
2018-10-18T05:33:39.381Z,9.80
2018-10-18T05:36:06.927Z,9.70
2018-10-18T05:38:34.480Z,9.50
2018-10-18T05:41:02.017Z,9.20
2018-10-18T05:43:29.564Z,9.00
2018-10-18T05:45:57.124Z,8.80
2018-10-18T05:48:24.684Z,8.60
2018-10-18T05:50:52.256Z,8.50
2018-10-18T05:53:19.891Z,8.30
2018-10-18T05:55:47.420Z,8.30
2018-10-18T05:58:14.991Z,8.20
2018-10-18T06:00:42.558Z,8.30
2018-10-18T06:03:10.101Z,8.30
2018-10-18T06:05:37.687Z,8.30
2018-10-18T06:08:05.309Z,8.30
2018-10-18T06:10:44.144Z,8.30
2018-10-18T06:13:11.752Z,8.30
2018-10-18T06:15:39.314Z,8.30
2018-10-18T06:18:06.880Z,8.20
2018-10-18T06:20:34.469Z,8.20
2018-10-18T06:23:02.221Z,8.20
2018-10-18T06:25:29.744Z,8.20
2018-10-18T06:27:57.338Z,8.20
2018-10-18T06:30:24.934Z,8.40
2018-10-18T06:32:52.560Z,8.70
2018-10-18T06:35:20.122Z,8.90
2018-10-18T06:37:47.722Z,9.10
2018-10-18T06:40:16.338Z,9.40
2018-10-18T06:42:43.913Z,9.70
2018-10-18T06:45:12.898Z,9.80
2018-10-18T06:47:41.297Z,10.00
2018-10-18T06:50:10.924Z,9.90
2018-10-18T06:52:38.481Z,9.70
2018-10-18T06:55:06.338Z,9.60
2018-10-18T06:57:34.012Z,9.40
2018-10-18T07:00:01.727Z,9.30
2018-10-18T07:02:29.228Z,9.20
2018-10-18T07:04:57.050Z,9.20
2018-10-18T07:07:24.778Z,9.00
2018-10-18T07:09:52.385Z,9.00
2018-10-18T07:12:19.925Z,9.10
2018-10-18T07:14:47.521Z,9.20
2018-10-18T07:17:15.130Z,9.30
2018-10-18T07:19:42.729Z,9.40
2018-10-18T07:22:10.297Z,9.40
2018-10-18T07:24:37.877Z,9.40
2018-10-18T07:27:06.201Z,9.40
2018-10-18T07:29:33.739Z,9.40
2018-10-18T07:32:01.355Z,9.40
2018-10-18T07:34:28.908Z,9.40
2018-10-18T07:36:56.531Z,9.30
2018-10-18T07:39:24.099Z,9.40
2018-10-18T07:41:51.682Z,9.40
2018-10-18T07:44:19.298Z,9.50
2018-10-18T07:46:46.912Z,9.50
2018-10-18T07:49:14.503Z,9.60
2018-10-18T07:51:42.097Z,9.70
2018-10-18T07:54:09.731Z,9.70
2018-10-18T07:56:37.257Z,9.80
2018-10-18T07:59:05.074Z,9.90
2018-10-18T08:01:32.641Z,10.00
2018-10-18T08:04:00.283Z,10.20
2018-10-18T08:06:27.830Z,10.50
2018-10-18T08:08:55.425Z,10.70
2018-10-18T08:11:23.022Z,11.00
2018-10-18T08:13:50.640Z,11.10
2018-10-18T08:16:18.208Z,11.20
2018-10-18T08:18:45.784Z,11.40
2018-10-18T08:21:13.360Z,11.50
2018-10-18T08:23:40.995Z,11.60
2018-10-18T08:26:08.575Z,11.70
2018-10-18T08:28:36.187Z,11.80
2018-10-18T08:31:03.843Z,11.90
2018-10-18T08:33:31.369Z,12.00
2018-10-18T08:35:58.924Z,12.00
2018-10-18T08:38:26.514Z,12.00
2018-10-18T08:40:54.113Z,12.00
2018-10-18T08:43:21.774Z,12.10
2018-10-18T08:45:49.461Z,12.10
2018-10-18T08:48:17.065Z,12.20
2018-10-18T08:50:44.665Z,12.20
2018-10-18T08:53:12.301Z,12.30
2018-10-18T08:55:39.995Z,12.40
2018-10-18T08:58:07.474Z,12.50
2018-10-18T09:00:35.051Z,12.50
2018-10-18T09:03:02.655Z,12.60
2018-10-18T09:05:30.251Z,12.60
2018-10-18T09:07:57.830Z,12.70
2018-10-18T09:10:25.426Z,12.80
2018-10-18T09:12:53.084Z,12.90
2018-10-18T09:15:20.684Z,13.00
2018-10-18T09:17:48.285Z,13.00
2018-10-18T09:20:15.877Z,13.10
2018-10-18T09:22:43.489Z,13.20
2018-10-18T09:25:11.582Z,13.30
2018-10-18T09:27:39.629Z,13.40
2018-10-18T09:30:08.575Z,13.50
2018-10-18T09:32:36.119Z,13.60
2018-10-18T09:35:03.708Z,13.70
2018-10-18T09:37:31.267Z,13.80
2018-10-18T09:39:58.861Z,13.90
2018-10-18T09:42:26.476Z,14.00
2018-10-18T09:44:54.127Z,14.20
2018-10-18T09:47:21.647Z,14.40
2018-10-18T09:49:49.222Z,14.60
2018-10-18T09:52:16.794Z,14.90
2018-10-18T09:54:44.370Z,15.10
2018-10-18T09:57:11.977Z,15.30
2018-10-18T09:59:39.554Z,15.50
2018-10-18T10:02:12.654Z,15.80
2018-10-18T10:04:40.202Z,16.00
2018-10-18T10:07:07.888Z,16.20
2018-10-18T10:09:35.726Z,16.50
2018-10-18T10:12:03.315Z,16.80
2018-10-18T10:14:30.900Z,17.00
2018-10-18T10:16:58.468Z,17.20
2018-10-18T10:19:26.009Z,17.30
2018-10-18T10:21:53.590Z,17.60
2018-10-18T10:24:21.852Z,17.80
2018-10-18T10:26:49.518Z,18.10
2018-10-18T10:29:17.073Z,18.30
2018-10-18T10:31:44.667Z,18.50
2018-10-18T10:34:12.302Z,18.70
2018-10-18T10:36:39.867Z,19.00
2018-10-18T10:39:07.833Z,19.10
2018-10-18T10:41:35.348Z,19.10
2018-10-18T10:44:05.564Z,18.90
2018-10-18T10:46:33.882Z,18.70
2018-10-18T10:49:01.535Z,18.60
2018-10-18T10:51:29.104Z,18.50
2018-10-18T10:53:56.669Z,18.40
2018-10-18T10:56:24.254Z,18.30
2018-10-18T10:58:51.822Z,18.40
2018-10-18T11:01:21.350Z,18.50
2018-10-18T11:03:50.171Z,18.80
2018-10-18T11:06:17.917Z,19.10
2018-10-18T11:08:45.409Z,19.30
2018-10-18T11:11:13.849Z,19.50
2018-10-18T11:13:41.413Z,19.60
2018-10-18T11:16:09.067Z,19.90
2018-10-18T11:18:37.407Z,20.00
2018-10-18T11:21:06.166Z,20.00
2018-10-18T11:23:34.205Z,19.90
2018-10-18T11:26:01.985Z,19.90
2018-10-18T11:28:29.516Z,19.80
2018-10-18T11:30:57.141Z,19.60
2018-10-18T11:33:24.731Z,19.40
2018-10-18T11:35:52.349Z,19.30
2018-10-18T11:38:19.909Z,19.40
2018-10-18T11:40:47.454Z,19.40
2018-10-18T11:43:15.106Z,19.40
2018-10-18T11:45:42.731Z,19.50
2018-10-18T11:48:11.737Z,19.70
2018-10-18T11:50:39.286Z,19.70
2018-10-18T11:53:06.870Z,19.70
2018-10-18T11:55:34.674Z,19.80
2018-10-18T11:58:02.322Z,20.00
2018-10-18T12:00:29.893Z,20.20
2018-10-18T12:02:57.522Z,20.30
2018-10-18T12:05:25.115Z,20.50
2018-10-18T12:07:52.707Z,20.50
2018-10-18T12:10:20.293Z,20.40
2018-10-18T12:12:47.838Z,20.20
2018-10-18T12:15:15.452Z,20.00
2018-10-18T12:17:43.850Z,19.80
2018-10-18T12:20:14.831Z,19.80
2018-10-18T12:22:42.393Z,20.00
2018-10-18T12:25:10.512Z,20.10
2018-10-18T12:27:38.117Z,20.30
2018-10-18T12:30:06.518Z,20.50
2018-10-18T12:32:34.144Z,20.70
2018-10-18T12:35:01.758Z,20.90
2018-10-18T12:37:29.362Z,21.10
2018-10-18T12:39:57.012Z,21.20
2018-10-18T12:42:24.602Z,21.30
2018-10-18T12:44:52.193Z,21.40
2018-10-18T12:47:19.840Z,21.40
2018-10-18T12:49:47.434Z,21.50
2018-10-18T12:52:14.998Z,21.50
2018-10-18T12:54:42.750Z,21.30
2018-10-18T12:57:11.256Z,21.10
2018-10-18T12:59:38.881Z,20.90
2018-10-18T13:02:06.673Z,20.80
2018-10-18T13:04:34.414Z,20.80
2018-10-18T13:07:02.618Z,20.90
2018-10-18T13:09:30.275Z,21.00
2018-10-18T13:11:58.146Z,21.00
2018-10-18T13:14:26.418Z,21.00
2018-10-18T13:16:54.003Z,21.00
2018-10-18T13:19:21.657Z,21.00
2018-10-18T13:21:49.301Z,21.00
2018-10-18T13:24:16.928Z,21.10
2018-10-18T13:26:44.504Z,21.10
2018-10-18T13:29:12.112Z,21.20
2018-10-18T13:31:39.718Z,21.40
2018-10-18T13:34:07.484Z,21.50
2018-10-18T13:36:35.090Z,21.60
2018-10-18T13:39:04.169Z,21.50
2018-10-18T13:41:31.705Z,21.60
2018-10-18T13:43:59.289Z,21.70
2018-10-18T13:46:26.981Z,21.90
2018-10-18T13:48:54.517Z,22.00
2018-10-18T13:51:22.097Z,22.10
2018-10-18T13:53:49.659Z,22.10
2018-10-18T13:56:17.305Z,22.00
2018-10-18T13:58:44.804Z,22.00
2018-10-18T14:01:12.379Z,21.90
2018-10-18T14:03:39.950Z,21.80
2018-10-18T14:06:07.559Z,21.80
2018-10-18T14:08:35.198Z,22.00
2018-10-18T14:11:02.818Z,22.30
2018-10-18T14:13:30.401Z,22.40
2018-10-18T14:15:57.961Z,22.60
2018-10-18T14:18:25.585Z,22.60
2018-10-18T14:20:53.168Z,22.70
2018-10-18T14:23:20.795Z,22.80
2018-10-18T14:25:48.394Z,22.90
2018-10-18T14:28:15.994Z,23.00
2018-10-18T14:30:43.672Z,23.00
2018-10-18T14:33:11.213Z,22.80
2018-10-18T14:35:38.810Z,22.40
2018-10-18T14:38:06.416Z,22.10
2018-10-18T14:40:34.051Z,21.80
2018-10-18T14:43:01.663Z,21.70
2018-10-18T14:45:29.304Z,21.60
2018-10-18T14:47:56.891Z,21.50
2018-10-18T14:50:24.702Z,21.50
2018-10-18T14:52:52.222Z,21.40
2018-10-18T14:55:19.867Z,21.30
2018-10-18T14:57:47.505Z,21.20
2018-10-18T15:00:15.103Z,21.10
2018-10-18T15:02:42.859Z,21.10
2018-10-18T15:05:11.307Z,21.10
2018-10-18T15:07:39.321Z,21.10
2018-10-18T15:10:08.522Z,21.10
2018-10-18T15:12:36.131Z,21.00
2018-10-18T15:15:03.848Z,21.00
2018-10-18T15:17:31.419Z,20.90
2018-10-18T15:19:59.025Z,20.80
2018-10-18T15:22:26.714Z,20.60
2018-10-18T15:24:54.298Z,20.50
2018-10-18T15:27:22.116Z,20.30
2018-10-18T15:29:49.824Z,20.10
2018-10-18T15:32:17.439Z,20.00
2018-10-18T15:34:45.098Z,19.80
2018-10-18T15:37:12.679Z,19.70
2018-10-18T15:39:40.309Z,19.50
2018-10-18T15:42:07.981Z,19.40
2018-10-18T15:44:35.605Z,19.20
2018-10-18T15:47:03.485Z,19.00
2018-10-18T15:49:31.143Z,18.90
2018-10-18T15:51:58.727Z,18.70
2018-10-18T15:54:26.412Z,18.50
2018-10-18T15:56:53.994Z,18.20
2018-10-18T15:59:21.605Z,18.00
2018-10-18T16:01:49.231Z,17.80
2018-10-18T16:04:16.840Z,17.70
2018-10-18T16:06:44.488Z,17.50
2018-10-18T16:09:13.286Z,17.30
2018-10-18T16:11:40.897Z,17.20
2018-10-18T16:14:08.641Z,17.10
2018-10-18T16:16:36.167Z,17.00
2018-10-18T16:19:04.704Z,16.80
2018-10-18T16:21:32.323Z,16.50
2018-10-18T16:24:00.038Z,16.20
2018-10-18T16:26:27.737Z,16.00
2018-10-18T16:28:55.349Z,15.80
2018-10-18T16:31:22.945Z,15.60
2018-10-18T16:33:50.599Z,15.40
2018-10-18T16:36:18.147Z,15.30
2018-10-18T16:38:45.792Z,15.10
2018-10-18T16:41:13.537Z,15.00
2018-10-18T16:43:40.925Z,14.80
2018-10-18T16:46:08.597Z,14.70
2018-10-18T16:48:36.212Z,14.50
2018-10-18T16:51:04.090Z,14.40
2018-10-18T16:53:31.773Z,14.30
2018-10-18T16:55:59.428Z,14.10
2018-10-18T16:58:27.068Z,14.10
2018-10-18T17:00:54.716Z,14.00
2018-10-18T17:03:22.372Z,13.80
2018-10-18T17:05:50.044Z,13.80
2018-10-18T17:08:17.834Z,13.60
2018-10-18T17:10:45.358Z,13.60
2018-10-18T17:13:13.087Z,13.50
2018-10-18T17:15:40.711Z,13.40
2018-10-18T17:18:08.376Z,13.30
2018-10-18T17:20:36.169Z,13.20
2018-10-18T17:23:04.196Z,13.20
2018-10-18T17:25:31.863Z,13.10
2018-10-18T17:27:59.505Z,13.10
2018-10-18T17:30:27.779Z,13.00
2018-10-18T17:32:55.563Z,13.00
2018-10-18T17:35:23.228Z,12.90
2018-10-18T17:37:50.951Z,12.90
2018-10-18T17:40:18.708Z,12.80
2018-10-18T17:42:46.295Z,12.80
2018-10-18T17:45:14.021Z,12.70
2018-10-18T17:47:42.250Z,12.60
2018-10-18T17:50:10.414Z,12.50
2018-10-18T17:52:38.185Z,12.50
2018-10-18T17:55:06.558Z,12.50
2018-10-18T17:57:34.780Z,12.40
2018-10-18T18:00:02.682Z,12.30
2018-10-18T18:02:30.381Z,12.30
2018-10-18T18:04:58.103Z,12.20
2018-10-18T18:07:25.804Z,12.20
2018-10-18T18:09:53.578Z,12.10
2018-10-18T18:12:21.264Z,12.10
2018-10-18T18:14:48.958Z,12.10
2018-10-18T18:17:16.660Z,12.00
2018-10-18T18:19:45.144Z,11.90
2018-10-18T18:22:12.847Z,11.90
2018-10-18T18:24:40.610Z,11.90
2018-10-18T18:27:08.831Z,11.80
2018-10-18T18:29:38.695Z,11.80
2018-10-18T18:32:06.697Z,11.70
2018-10-18T18:34:34.727Z,11.70
2018-10-18T18:37:02.403Z,11.60
2018-10-18T18:39:30.085Z,11.60
2018-10-18T18:41:57.792Z,11.60
2018-10-18T18:44:25.526Z,11.50
2018-10-18T18:46:53.241Z,11.40
2018-10-18T18:49:20.999Z,11.40
2018-10-18T18:51:48.726Z,11.40
2018-10-18T18:54:16.425Z,11.40
2018-10-18T18:56:44.122Z,11.30
2018-10-18T18:59:11.809Z,11.30
2018-10-18T19:01:40.326Z,11.30
2018-10-18T19:04:08.110Z,11.30
2018-10-18T19:06:35.780Z,11.30
2018-10-18T19:09:05.756Z,11.20
2018-10-18T19:11:33.452Z,11.20
2018-10-18T19:14:01.149Z,11.20
2018-10-18T19:16:28.875Z,11.20
2018-10-18T19:18:56.851Z,11.20
2018-10-18T19:21:24.818Z,11.20
2018-10-18T19:23:52.611Z,11.10
2018-10-18T19:26:20.333Z,11.10
2018-10-18T19:28:48.085Z,11.00
2018-10-18T19:31:15.761Z,11.00
2018-10-18T19:33:43.473Z,10.90
2018-10-18T19:36:11.199Z,10.90
2018-10-18T19:38:40.272Z,10.80
2018-10-18T19:41:08.034Z,10.80
2018-10-18T19:43:35.726Z,10.80
2018-10-18T19:46:03.972Z,10.80
2018-10-18T19:48:31.588Z,10.70
2018-10-18T19:50:59.907Z,10.70
2018-10-18T19:53:27.529Z,10.70
2018-10-18T19:55:55.260Z,10.70
2018-10-18T19:58:23.221Z,10.70
2018-10-18T20:00:50.922Z,10.70
2018-10-18T20:03:18.516Z,10.60
2018-10-18T20:05:46.311Z,10.60
2018-10-18T20:08:14.002Z,10.60
2018-10-18T20:10:41.661Z,10.60
2018-10-18T20:13:09.393Z,10.60
2018-10-18T20:15:37.185Z,10.60
2018-10-18T20:18:05.007Z,10.60
2018-10-18T20:20:32.649Z,10.60
2018-10-18T20:23:00.293Z,10.60
2018-10-18T20:25:28.037Z,10.60
2018-10-18T20:27:55.639Z,10.60
2018-10-18T20:30:23.232Z,10.50
2018-10-18T20:32:50.831Z,10.50
2018-10-18T20:35:19.032Z,10.50
2018-10-18T20:37:46.621Z,10.50
2018-10-18T20:40:14.955Z,10.50
2018-10-18T20:42:42.669Z,10.50
2018-10-18T20:45:15.925Z,10.50
2018-10-18T20:47:43.819Z,10.50
2018-10-18T20:50:11.838Z,10.50
2018-10-18T20:52:39.457Z,10.50
2018-10-18T20:55:07.527Z,10.50
2018-10-18T20:57:35.160Z,10.50
2018-10-18T21:00:02.968Z,10.50
2018-10-18T21:02:30.544Z,10.50
2018-10-18T21:04:58.080Z,10.50
2018-10-18T21:07:25.622Z,10.50
2018-10-18T21:09:53.180Z,10.50
2018-10-18T21:12:20.704Z,10.40
2018-10-18T21:14:48.236Z,10.50
2018-10-18T21:17:15.817Z,10.40
2018-10-18T21:19:46.378Z,10.40
2018-10-18T21:22:13.912Z,10.40
2018-10-18T21:24:41.426Z,10.30
2018-10-18T21:27:09.054Z,10.30
2018-10-18T21:29:36.516Z,10.30
2018-10-18T21:32:04.151Z,10.30
2018-10-18T21:34:31.696Z,10.30
2018-10-18T21:36:59.262Z,10.30
2018-10-18T21:39:29.546Z,10.30
2018-10-18T21:41:57.098Z,10.30
2018-10-18T21:44:25.766Z,10.20
2018-10-18T21:46:53.382Z,10.20
2018-10-18T21:49:20.940Z,10.20
2018-10-18T21:51:48.459Z,10.20
2018-10-18T21:54:16.071Z,10.20
2018-10-18T21:56:43.620Z,10.10
2018-10-18T21:59:11.279Z,10.00
2018-10-18T22:01:38.801Z,10.00
2018-10-18T22:04:06.410Z,9.90
2018-10-18T22:06:34.131Z,9.90
2018-10-18T22:09:01.680Z,9.80
2018-10-18T22:11:29.206Z,9.80
2018-10-18T22:13:56.730Z,9.80
2018-10-18T22:16:24.251Z,9.80
2018-10-18T22:18:51.744Z,9.80
2018-10-18T22:21:19.303Z,9.70
2018-10-18T22:23:46.846Z,9.70
2018-10-18T22:26:15.091Z,9.60
2018-10-18T22:28:42.614Z,9.50
2018-10-18T22:31:10.153Z,9.50
2018-10-18T22:33:37.710Z,9.40
2018-10-18T22:36:05.301Z,9.40
2018-10-18T22:38:32.915Z,9.40
2018-10-18T22:41:00.636Z,9.30
2018-10-18T22:43:28.194Z,9.30
2018-10-18T22:45:59.100Z,9.30
2018-10-18T22:48:27.212Z,9.20
2018-10-18T22:50:55.063Z,9.20
2018-10-18T22:53:22.581Z,9.10
2018-10-18T22:55:50.102Z,9.10
2018-10-18T22:58:17.657Z,9.10
2018-10-18T23:00:47.270Z,9.10
2018-10-18T23:03:15.380Z,9.10
2018-10-18T23:05:43.100Z,9.10
2018-10-18T23:08:10.692Z,9.10
2018-10-18T23:10:38.271Z,9.10
2018-10-18T23:13:05.866Z,9.10
2018-10-18T23:15:33.406Z,9.00
2018-10-18T23:18:00.920Z,9.00
2018-10-18T23:20:28.484Z,9.00
2018-10-18T23:22:56.043Z,8.90
2018-10-18T23:25:23.545Z,8.90
2018-10-18T23:27:51.093Z,8.90
2018-10-18T23:30:18.642Z,8.90
2018-10-18T23:32:46.249Z,8.90
2018-10-18T23:35:13.849Z,8.90
2018-10-18T23:37:41.348Z,8.90
2018-10-18T23:40:08.936Z,8.90
2018-10-18T23:42:36.473Z,8.90
2018-10-18T23:45:04.528Z,8.90
2018-10-18T23:47:32.095Z,8.90
2018-10-18T23:49:59.671Z,8.80
2018-10-18T23:52:27.219Z,8.80
2018-10-18T23:54:54.821Z,8.80
2018-10-18T23:57:22.315Z,8.80
2018-10-18T23:59:49.833Z,8.80
